Terminal Aerodrome Forecast
Issued by NWS

Home | Current Version | Previous Version | Text Only | Print | Product List | Glossary On
Versions: 1 2 3 4 5 6 7 8 9 10 11 12 13 14 15
029
FTUS44 KLUB 072340
TAFCDS
TAF
KCDS 072340Z 0800/0824 03016KT P6SM SCT025 BKN035
     FM081500 01008KT P6SM OVC060=

USA.gov is the U.S. government's official web portal to all federal, state and local government web resources and services.